createdAt,value
2022-12-07T00:01:31.277Z,39.97
2022-12-07T00:04:05.560Z,25.83
2022-12-07T00:06:58.685Z,29.40
2022-12-07T00:09:25.219Z,34.77
2022-12-07T00:11:53.299Z,26.97
2022-12-07T00:14:20.151Z,30.93
2022-12-07T00:16:49.311Z,28.27
2022-12-07T00:19:15.867Z,30.70
2022-12-07T00:21:42.793Z,27.90
2022-12-07T00:24:10.861Z,31.93
2022-12-07T00:26:39.867Z,30.67
2022-12-07T00:29:15.633Z,32.40
2022-12-07T00:31:42.163Z,31.63
2022-12-07T00:34:14.487Z,32.23
2022-12-07T00:36:40.933Z,32.90
2022-12-07T00:39:07.550Z,28.17
2022-12-07T00:41:33.967Z,30.17
2022-12-07T00:44:00.528Z,28.53
2022-12-07T00:46:27.663Z,33.20
2022-12-07T00:48:54.747Z,29.20
2022-12-07T00:51:24.033Z,32.23
2022-12-07T00:53:50.938Z,35.93
2022-12-07T00:56:28.763Z,26.40
2022-12-07T00:59:03.403Z,29.47
2022-12-07T01:01:33.061Z,29.00
2022-12-07T01:04:02.186Z,31.80
2022-12-07T01:06:28.801Z,28.80
2022-12-07T01:08:56.120Z,36.60
2022-12-07T01:11:25.683Z,31.70
2022-12-07T01:13:53.450Z,28.30
2022-12-07T01:16:21.235Z,34.10
2022-12-07T01:18:50.542Z,29.93
2022-12-07T01:21:21.815Z,31.73
2022-12-07T01:23:48.675Z,29.73
2022-12-07T01:26:18.325Z,36.13
2022-12-07T01:28:45.197Z,32.07
2022-12-07T01:31:16.029Z,25.37
2022-12-07T01:33:44.738Z,31.00
2022-12-07T01:36:19.133Z,32.77
2022-12-07T01:38:46.702Z,32.03
2022-12-07T01:41:13.862Z,28.67
2022-12-07T01:44:18.426Z,31.97
2022-12-07T01:46:50.835Z,30.70
2022-12-07T01:49:24.090Z,34.00
2022-12-07T01:51:53.530Z,30.40
2022-12-07T01:54:21.943Z,31.30
2022-12-07T01:56:52.902Z,30.87
2022-12-07T01:59:22.860Z,36.77
2022-12-07T02:01:49.487Z,27.13
2022-12-07T02:04:16.355Z,34.50
2022-12-07T02:06:45.486Z,28.07
2022-12-07T02:09:13.121Z,32.63
2022-12-07T02:11:40.669Z,29.83
2022-12-07T02:14:07.243Z,26.77
2022-12-07T02:16:36.830Z,31.40
2022-12-07T02:19:25.200Z,28.10
2022-12-07T02:22:16.454Z,29.30
2022-12-07T02:25:10.117Z,29.57
2022-12-07T02:27:57.219Z,32.10
2022-12-07T02:30:32.090Z,29.60
2022-12-07T02:33:04.743Z,30.63
2022-12-07T02:35:36.555Z,30.40
2022-12-07T02:38:15.310Z,37.03
2022-12-07T02:40:48.052Z,30.07
2022-12-07T02:43:31.774Z,26.73
2022-12-07T02:46:09.353Z,30.00
2022-12-07T02:48:38.005Z,29.90
2022-12-07T02:51:04.540Z,31.07
2022-12-07T02:53:36.363Z,37.87
2022-12-07T02:56:17.566Z,30.77
2022-12-07T02:58:52.062Z,31.73
2022-12-07T03:01:46.563Z,30.80
2022-12-07T03:04:47.093Z,28.70
2022-12-07T03:07:20.089Z,28.30
2022-12-07T03:09:53.220Z,30.93
2022-12-07T03:12:38.397Z,30.97
2022-12-07T03:15:18.306Z,28.50
2022-12-07T03:17:47.602Z,29.60
2022-12-07T03:20:18.692Z,32.07
2022-12-07T03:22:46.669Z,34.30
2022-12-07T03:25:16.333Z,29.87
2022-12-07T03:27:54.127Z,27.80
2022-12-07T03:30:23.763Z,30.27
2022-12-07T03:33:14.966Z,33.87
2022-12-07T03:35:46.155Z,27.80
2022-12-07T03:38:30.891Z,33.97
2022-12-07T03:41:32.161Z,32.27
2022-12-07T03:43:59.516Z,28.87
2022-12-07T03:46:53.115Z,29.87
2022-12-07T03:49:24.588Z,30.90
2022-12-07T03:52:27.817Z,35.93
2022-12-07T03:55:12.222Z,31.27
2022-12-07T03:57:41.089Z,25.90
2022-12-07T04:00:09.016Z,28.40
2022-12-07T04:02:36.378Z,29.67
2022-12-07T04:05:03.962Z,37.57
2022-12-07T04:07:30.449Z,32.83
2022-12-07T04:09:56.996Z,30.30
2022-12-07T04:12:24.306Z,29.70
2022-12-07T04:14:50.804Z,28.70
2022-12-07T04:17:17.549Z,27.63
2022-12-07T04:19:43.984Z,42.63
2022-12-07T04:22:10.530Z,30.60
2022-12-07T04:24:36.994Z,35.60
2022-12-07T04:27:03.845Z,28.00
2022-12-07T04:29:30.327Z,29.00
2022-12-07T04:31:56.894Z,35.97
2022-12-07T04:34:23.383Z,28.00
2022-12-07T04:36:49.947Z,29.83
2022-12-07T04:39:24.241Z,30.07
2022-12-07T04:41:50.740Z,25.77
2022-12-07T04:44:18.282Z,28.17
2022-12-07T04:46:45.214Z,28.63
2022-12-07T04:49:12.869Z,25.60
2022-12-07T04:51:39.930Z,37.13
2022-12-07T04:54:06.513Z,24.43
2022-12-07T04:56:33.764Z,29.97
2022-12-07T04:59:00.177Z,27.17
2022-12-07T05:01:26.623Z,30.63
2022-12-07T05:03:53.292Z,26.53
2022-12-07T05:06:20.219Z,27.70
2022-12-07T05:08:47.255Z,28.27
2022-12-07T05:11:34.185Z,31.03
2022-12-07T05:14:01.676Z,25.40
2022-12-07T05:16:28.882Z,25.83
2022-12-07T05:18:55.572Z,25.87
2022-12-07T05:21:22.338Z,25.03
2022-12-07T05:23:48.790Z,25.33
2022-12-07T05:26:15.260Z,26.47
2022-12-07T05:28:42.012Z,24.97
2022-12-07T05:31:08.624Z,27.23
2022-12-07T05:33:35.135Z,29.53
2022-12-07T05:36:06.328Z,30.83
2022-12-07T05:38:34.005Z,25.30
2022-12-07T05:41:05.665Z,24.43
2022-12-07T05:43:33.750Z,22.63
2022-12-07T05:46:00.489Z,28.40
2022-12-07T05:48:27.210Z,21.77
2022-12-07T05:50:53.838Z,25.80
2022-12-07T05:53:23.211Z,22.23
2022-12-07T05:55:49.987Z,21.70
2022-12-07T05:58:35.054Z,23.00
2022-12-07T06:01:01.498Z,24.30
2022-12-07T06:03:28.013Z,27.10
2022-12-07T06:05:54.842Z,23.00
2022-12-07T06:08:21.432Z,18.83
2022-12-07T06:11:08.767Z,25.43
2022-12-07T06:13:35.170Z,26.97
2022-12-07T06:16:01.615Z,25.30
2022-12-07T06:18:28.090Z,27.30
2022-12-07T06:20:54.515Z,23.93
2022-12-07T06:23:20.985Z,20.63
2022-12-07T06:25:47.506Z,23.80
2022-12-07T06:28:13.955Z,24.07
2022-12-07T06:30:40.510Z,23.80
2022-12-07T06:33:07.382Z,23.20
2022-12-07T06:35:34.619Z,25.00
2022-12-07T06:38:01.050Z,26.43
2022-12-07T06:40:27.503Z,27.77
2022-12-07T06:42:53.970Z,27.03
2022-12-07T06:45:20.459Z,22.40
2022-12-07T06:47:46.956Z,24.23
2022-12-07T06:50:13.756Z,22.57
2022-12-07T06:52:40.195Z,27.13
2022-12-07T06:55:10.100Z,23.10
2022-12-07T06:57:36.516Z,26.60
2022-12-07T07:00:04.721Z,24.40
2022-12-07T07:02:31.372Z,20.80
2022-12-07T07:04:58.410Z,22.20
2022-12-07T07:07:24.822Z,19.93
2022-12-07T07:09:51.266Z,25.70
2022-12-07T07:12:17.659Z,19.50
2022-12-07T07:14:44.333Z,23.63
2022-12-07T07:17:10.828Z,20.57
2022-12-07T07:19:38.386Z,28.40
2022-12-07T07:22:05.132Z,17.17
2022-12-07T07:24:31.675Z,26.37
2022-12-07T07:26:58.073Z,21.23
2022-12-07T07:29:24.481Z,20.50
2022-12-07T07:31:50.921Z,19.00
2022-12-07T07:34:17.540Z,25.87
2022-12-07T07:36:43.991Z,19.00
2022-12-07T07:39:13.564Z,23.80
2022-12-07T07:41:39.998Z,24.17
2022-12-07T07:44:06.389Z,24.93
2022-12-07T07:46:34.265Z,29.40
2022-12-07T07:49:00.757Z,20.07
2022-12-07T07:51:27.188Z,19.37
2022-12-07T07:53:53.597Z,21.03
2022-12-07T07:56:20.038Z,19.10
2022-12-07T07:58:46.569Z,22.20
2022-12-07T08:01:14.609Z,23.33
2022-12-07T08:03:41.166Z,18.20
2022-12-07T08:06:07.732Z,21.57
2022-12-07T08:08:34.297Z,26.70
2022-12-07T08:11:02.330Z,20.90
2022-12-07T08:13:31.180Z,19.20
2022-12-07T08:15:59.167Z,23.53
2022-12-07T08:18:25.648Z,33.50
2022-12-07T08:20:52.114Z,20.97
2022-12-07T08:23:18.526Z,28.43
2022-12-07T08:25:44.965Z,25.77
2022-12-07T08:28:11.428Z,24.13
2022-12-07T08:31:05.524Z,23.70
2022-12-07T08:33:33.110Z,25.60
2022-12-07T08:36:07.813Z,22.77
2022-12-07T08:38:39.044Z,21.50
2022-12-07T08:41:05.750Z,17.97
2022-12-07T08:43:32.521Z,19.63
2022-12-07T08:46:14.322Z,17.47
2022-12-07T08:48:47.600Z,18.80
2022-12-07T08:51:14.588Z,17.90
2022-12-07T08:53:42.704Z,25.27
2022-12-07T08:56:10.054Z,24.17
2022-12-07T08:58:37.995Z,26.50
2022-12-07T09:01:05.730Z,22.00
2022-12-07T09:03:32.469Z,18.03
2022-12-07T09:06:00.304Z,21.50
2022-12-07T09:08:39.230Z,19.37
2022-12-07T09:11:05.894Z,19.60
2022-12-07T09:13:32.427Z,17.30
2022-12-07T09:15:58.946Z,25.40
2022-12-07T09:18:25.746Z,24.23
2022-12-07T09:20:52.480Z,20.53
2022-12-07T09:23:19.310Z,16.43
2022-12-07T09:25:45.832Z,22.80
2022-12-07T09:28:12.297Z,22.30
2022-12-07T09:30:52.831Z,14.73
2022-12-07T09:33:25.198Z,18.07
2022-12-07T09:35:53.896Z,19.37
2022-12-07T09:38:21.061Z,18.23
2022-12-07T09:40:48.066Z,17.93
2022-12-07T09:43:17.186Z,19.03
2022-12-07T09:45:48.538Z,20.03
2022-12-07T09:48:19.864Z,18.50
2022-12-07T09:50:49.037Z,19.80
2022-12-07T09:53:26.454Z,21.60
2022-12-07T09:55:53.857Z,17.50
2022-12-07T09:58:27.368Z,20.83
2022-12-07T10:01:00.466Z,21.17
2022-12-07T10:03:30.356Z,17.63
2022-12-07T10:05:58.188Z,16.00
2022-12-07T10:08:26.363Z,17.73
2022-12-07T10:10:56.774Z,19.53
2022-12-07T10:13:36.622Z,20.50
2022-12-07T10:16:06.870Z,19.00
2022-12-07T10:18:42.356Z,20.20
2022-12-07T10:21:08.729Z,23.40
2022-12-07T10:23:36.613Z,15.70
2022-12-07T10:26:29.724Z,16.60
2022-12-07T10:29:00.560Z,22.27
2022-12-07T10:31:27.532Z,15.77
2022-12-07T10:34:01.950Z,18.90
2022-12-07T10:36:37.691Z,21.80
2022-12-07T10:39:16.012Z,17.10
2022-12-07T10:41:55.315Z,27.87
2022-12-07T10:44:24.182Z,20.80
2022-12-07T10:46:58.742Z,17.40
2022-12-07T10:49:44.655Z,17.60
2022-12-07T10:52:21.390Z,22.80
2022-12-07T10:55:06.447Z,17.60
2022-12-07T10:58:05.067Z,21.33
2022-12-07T11:01:08.745Z,17.23
2022-12-07T11:03:50.115Z,16.00
2022-12-07T11:06:37.848Z,20.87
2022-12-07T11:09:51.926Z,15.20
2022-12-07T11:12:52.668Z,21.07
2022-12-07T11:15:24.987Z,17.07
2022-12-07T11:18:07.063Z,15.77
2022-12-07T11:20:52.358Z,16.30
2022-12-07T11:23:53.828Z,21.40
2022-12-07T11:26:26.231Z,21.70
2022-12-07T11:29:04.674Z,19.60
2022-12-07T11:31:52.855Z,15.90
2022-12-07T11:34:28.979Z,18.10
2022-12-07T11:36:57.678Z,16.47
2022-12-07T11:39:31.155Z,13.00
2022-12-07T11:42:33.112Z,18.07
2022-12-07T11:45:04.366Z,17.67
2022-12-07T11:47:56.824Z,16.80
2022-12-07T11:50:51.099Z,18.27
2022-12-07T11:53:29.844Z,22.07
2022-12-07T11:56:04.671Z,28.83
2022-12-07T11:58:34.253Z,17.07
2022-12-07T12:01:32.062Z,15.70
2022-12-07T12:04:10.748Z,14.10
2022-12-07T12:06:42.593Z,14.60
2022-12-07T12:09:40.070Z,18.53
2022-12-07T12:15:17.637Z,19.87
2022-12-07T12:18:05.600Z,15.63
2022-12-07T12:20:41.144Z,15.20
2022-12-07T12:23:15.418Z,18.83
2022-12-07T12:25:56.922Z,20.87
2022-12-07T12:28:53.941Z,16.50
2022-12-07T12:31:23.475Z,15.53
2022-12-07T12:33:55.623Z,19.23
2022-12-07T12:36:22.110Z,25.87
2022-12-07T12:39:11.605Z,19.60
2022-12-07T12:41:50.153Z,19.20
2022-12-07T12:44:16.596Z,18.77
2022-12-07T12:46:50.223Z,26.30
2022-12-07T12:49:16.716Z,18.90
2022-12-07T12:51:45.683Z,27.10
2022-12-07T12:54:19.708Z,22.10
2022-12-07T12:57:14.467Z,23.10
2022-12-07T12:59:53.240Z,18.20
2022-12-07T13:02:29.987Z,18.73
2022-12-07T13:05:17.190Z,16.03
2022-12-07T13:07:50.816Z,17.03
2022-12-07T13:10:29.433Z,15.43
2022-12-07T13:13:11.854Z,16.87
2022-12-07T13:15:55.979Z,17.00
2022-12-07T13:18:42.948Z,16.63
2022-12-07T13:21:09.294Z,14.57
2022-12-07T13:23:49.394Z,16.30
2022-12-07T13:26:26.976Z,14.97
2022-12-07T13:29:21.240Z,15.37
2022-12-07T13:31:56.526Z,17.00
2022-12-07T13:34:30.688Z,19.83
2022-12-07T13:36:57.951Z,13.90
2022-12-07T13:39:26.655Z,17.30
2022-12-07T13:41:58.947Z,16.77
2022-12-07T13:44:27.704Z,15.83
2022-12-07T13:46:58.483Z,18.83
2022-12-07T13:49:27.882Z,16.40
2022-12-07T13:51:56.094Z,15.63
2022-12-07T13:54:23.016Z,16.23
2022-12-07T13:56:57.863Z,11.27
2022-12-07T13:59:26.387Z,13.40
2022-12-07T14:01:54.507Z,11.20
2022-12-07T14:04:30.544Z,26.60
2022-12-07T14:06:57.234Z,17.57
2022-12-07T14:09:26.250Z,14.47
2022-12-07T14:11:57.694Z,14.20
2022-12-07T14:14:36.256Z,14.73
2022-12-07T14:17:21.366Z,15.57
2022-12-07T14:19:59.080Z,13.43
2022-12-07T14:22:30.553Z,19.93
2022-12-07T14:25:18.948Z,19.17
2022-12-07T14:27:53.938Z,23.47
2022-12-07T14:30:20.701Z,19.33
2022-12-07T14:32:55.956Z,18.43
2022-12-07T14:35:22.680Z,19.10
2022-12-07T14:37:50.754Z,25.87
2022-12-07T14:40:25.720Z,17.53
2022-12-07T14:43:00.800Z,14.43
2022-12-07T14:45:27.783Z,12.53
2022-12-07T14:53:44.461Z,15.83
2022-12-07T14:56:10.921Z,15.77
2022-12-07T14:58:37.424Z,12.27
2022-12-07T15:01:04.460Z,22.03
2022-12-07T15:03:31.459Z,16.93
2022-12-07T15:05:58.370Z,14.93
2022-12-07T15:08:25.029Z,17.80
2022-12-07T15:10:51.692Z,20.30
2022-12-07T15:13:36.422Z,21.40
2022-12-07T15:16:03.138Z,21.87
2022-12-07T15:18:29.691Z,22.80
2022-12-07T15:20:56.171Z,15.73
2022-12-07T15:23:22.666Z,19.90
2022-12-07T15:25:50.107Z,17.80
2022-12-07T15:28:16.978Z,19.30
2022-12-07T15:30:44.788Z,17.43
2022-12-07T15:33:12.680Z,16.17
2022-12-07T15:35:40.943Z,13.27
2022-12-07T15:38:07.470Z,46.80
2022-12-07T15:40:33.966Z,21.13
2022-12-07T15:43:00.428Z,19.27
2022-12-07T15:45:26.968Z,25.90
2022-12-07T15:48:26.803Z,24.70
2022-12-07T15:50:42.102Z,22.77
2022-12-07T15:53:08.544Z,30.43
2022-12-07T15:55:35.027Z,21.17
2022-12-07T15:58:02.219Z,20.67
2022-12-07T16:00:28.643Z,16.07
2022-12-07T16:02:55.161Z,19.37
2022-12-07T16:05:21.759Z,21.50
2022-12-07T16:07:48.358Z,19.63
2022-12-07T16:10:15.008Z,21.40
2022-12-07T16:12:41.443Z,19.87
2022-12-07T16:15:08.403Z,32.10
2022-12-07T16:17:34.987Z,18.27
2022-12-07T16:20:01.548Z,26.03
2022-12-07T16:22:28.016Z,24.57
2022-12-07T16:24:54.472Z,25.77
2022-12-07T16:27:20.891Z,20.53
2022-12-07T16:29:47.318Z,19.23
2022-12-07T16:32:13.730Z,19.40
2022-12-07T16:34:40.661Z,18.70
2022-12-07T16:37:07.127Z,21.00
2022-12-07T16:39:35.051Z,20.73
2022-12-07T16:42:01.647Z,18.50
2022-12-07T16:44:28.385Z,19.77
2022-12-07T16:46:55.158Z,21.33
2022-12-07T16:49:21.852Z,16.67
2022-12-07T16:52:08.578Z,19.37
2022-12-07T16:54:37.892Z,15.53
2022-12-07T16:57:04.345Z,22.53
2022-12-07T16:59:30.796Z,18.83
2022-12-07T17:01:57.242Z,16.33
2022-12-07T17:04:23.822Z,18.80
2022-12-07T17:06:50.354Z,17.53
2022-12-07T17:09:21.137Z,15.87
2022-12-07T17:11:49.058Z,22.80
2022-12-07T17:14:34.126Z,17.63
2022-12-07T17:17:03.634Z,19.63
2022-12-07T17:19:30.150Z,19.20
2022-12-07T17:21:56.617Z,18.20
2022-12-07T17:24:23.061Z,17.63
2022-12-07T17:26:49.897Z,17.80
2022-12-07T17:29:18.492Z,17.37
2022-12-07T17:31:50.895Z,17.20
2022-12-07T17:34:18.917Z,25.17
2022-12-07T17:36:46.090Z,22.87
2022-12-07T17:39:15.708Z,20.73
2022-12-07T17:42:00.869Z,17.20
2022-12-07T17:44:28.426Z,21.33
2022-12-07T17:46:57.594Z,19.57
2022-12-07T17:49:24.199Z,23.10
2022-12-07T17:52:09.426Z,29.00
2022-12-07T17:54:35.907Z,16.73
2022-12-07T17:57:02.672Z,19.07
2022-12-07T17:59:29.196Z,23.20
2022-12-07T18:01:55.759Z,23.20
2022-12-07T18:04:22.202Z,16.67
2022-12-07T18:06:52.073Z,17.57
2022-12-07T18:09:19.868Z,18.53
2022-12-07T18:11:46.351Z,16.87
2022-12-07T18:14:12.831Z,17.40
2022-12-07T18:16:39.364Z,18.83
2022-12-07T18:19:09.077Z,21.13
2022-12-07T18:21:35.738Z,23.50
2022-12-07T18:24:04.541Z,20.27
2022-12-07T18:26:33.576Z,29.50
2022-12-07T18:29:00.948Z,25.33
2022-12-07T18:31:28.747Z,20.63
2022-12-07T18:33:56.235Z,24.10
2022-12-07T18:36:23.633Z,23.60
2022-12-07T18:38:50.210Z,25.33
2022-12-07T18:41:16.814Z,25.10
2022-12-07T18:43:43.326Z,21.23
2022-12-07T18:46:15.439Z,25.23
2022-12-07T18:48:42.157Z,29.43
2022-12-07T18:51:11.038Z,28.13
2022-12-07T18:53:37.707Z,28.47
2022-12-07T18:56:06.950Z,29.23
2022-12-07T18:58:34.266Z,32.00
2022-12-07T19:01:00.800Z,26.53
2022-12-07T19:03:32.806Z,34.67
2022-12-07T19:05:59.671Z,34.47
2022-12-07T19:08:26.284Z,39.30
2022-12-07T19:10:52.845Z,32.70
2022-12-07T19:13:19.375Z,30.73
2022-12-07T19:15:45.889Z,32.70
2022-12-07T19:18:12.321Z,26.33
2022-12-07T19:20:39.437Z,26.03
2022-12-07T19:23:05.837Z,22.77
2022-12-07T19:25:32.282Z,22.70
2022-12-07T19:27:58.742Z,25.27
2022-12-07T19:30:25.246Z,26.00
2022-12-07T19:32:51.742Z,26.53
2022-12-07T19:35:18.258Z,26.67
2022-12-07T19:37:44.708Z,27.57
2022-12-07T19:40:11.638Z,26.03
2022-12-07T19:42:38.163Z,24.20
2022-12-07T19:45:05.527Z,23.70
2022-12-07T19:47:32.224Z,27.73
2022-12-07T19:49:58.771Z,27.00
2022-12-07T19:52:26.563Z,31.20
2022-12-07T19:54:53.087Z,27.07
2022-12-07T19:57:19.578Z,31.53
2022-12-07T19:59:46.731Z,30.50
2022-12-07T20:02:15.497Z,28.00
2022-12-07T20:04:42.426Z,37.27
2022-12-07T20:07:10.330Z,51.03
2022-12-07T20:09:36.860Z,33.83
2022-12-07T20:12:21.959Z,28.07
2022-12-07T20:14:48.527Z,27.27
2022-12-07T20:17:15.027Z,27.57
2022-12-07T20:19:41.516Z,27.93
2022-12-07T20:22:08.040Z,28.00
2022-12-07T20:24:36.064Z,30.37
2022-12-07T20:27:04.132Z,31.67
2022-12-07T20:29:30.935Z,29.53
2022-12-07T20:31:58.075Z,28.03
2022-12-07T20:34:26.246Z,34.90
2022-12-07T20:36:53.965Z,31.80
2022-12-07T20:39:20.736Z,36.30
2022-12-07T20:42:05.870Z,35.17
2022-12-07T20:44:32.441Z,41.87
2022-12-07T20:46:58.934Z,29.10
2022-12-07T20:49:25.460Z,34.40
2022-12-07T20:51:51.960Z,31.13
2022-12-07T20:54:18.774Z,33.73
2022-12-07T20:56:45.233Z,34.87
2022-12-07T20:59:14.610Z,36.47
2022-12-07T21:01:41.951Z,28.13
2022-12-07T21:04:10.363Z,33.53
2022-12-07T21:06:36.921Z,32.90
2022-12-07T21:09:03.657Z,37.23
2022-12-07T21:11:31.669Z,41.60
2022-12-07T21:13:58.394Z,33.27
2022-12-07T21:16:28.028Z,37.30
2022-12-07T21:18:56.601Z,30.53
2022-12-07T21:21:23.498Z,38.50
2022-12-07T21:23:54.505Z,33.57
2022-12-07T21:26:26.665Z,31.43
2022-12-07T21:28:53.806Z,38.33
2022-12-07T21:31:20.911Z,31.77
2022-12-07T21:33:48.071Z,33.47
2022-12-07T21:36:17.766Z,37.53
2022-12-07T21:38:44.531Z,33.60
2022-12-07T21:41:20.594Z,32.77
2022-12-07T21:43:47.836Z,38.73
2022-12-07T21:46:15.405Z,38.80
2022-12-07T21:48:42.701Z,31.77
2022-12-07T21:51:11.885Z,33.30
2022-12-07T21:53:40.004Z,34.70
2022-12-07T21:56:15.491Z,35.03
2022-12-07T21:58:41.984Z,33.73
2022-12-07T22:01:14.190Z,41.53
2022-12-07T22:03:40.731Z,32.57
2022-12-07T22:06:07.390Z,30.97
2022-12-07T22:08:33.919Z,31.73
2022-12-07T22:11:03.845Z,37.90
2022-12-07T22:13:48.860Z,34.77
2022-12-07T22:16:15.423Z,28.20
2022-12-07T22:18:41.911Z,38.80
2022-12-07T22:21:08.461Z,50.30
2022-12-07T22:23:34.972Z,35.30
2022-12-07T22:26:05.971Z,30.30
2022-12-07T22:28:32.559Z,29.93
2022-12-07T22:31:06.546Z,31.67
2022-12-07T22:33:33.357Z,34.63
2022-12-07T22:36:00.913Z,33.23
2022-12-07T22:38:28.048Z,33.13
2022-12-07T22:40:55.207Z,39.57
2022-12-07T22:43:22.229Z,35.90
2022-12-07T22:45:59.971Z,49.93
2022-12-07T22:48:27.492Z,35.30
2022-12-07T22:50:55.202Z,38.27
2022-12-07T22:53:23.656Z,40.17
2022-12-07T22:55:50.600Z,33.40
2022-12-07T22:58:17.989Z,31.83
2022-12-07T23:00:44.962Z,30.90
2022-12-07T23:03:11.698Z,29.83
2022-12-07T23:05:43.464Z,34.47
2022-12-07T23:08:10.107Z,33.37
2022-12-07T23:10:37.402Z,31.93
2022-12-07T23:13:22.353Z,33.77
2022-12-07T23:15:48.863Z,36.13
2022-12-07T23:18:15.384Z,30.87
2022-12-07T23:20:41.838Z,34.73
2022-12-07T23:23:08.301Z,31.90
2022-12-07T23:25:34.767Z,34.07
2022-12-07T23:28:01.238Z,32.80
2022-12-07T23:30:27.645Z,35.83
2022-12-07T23:32:54.061Z,34.33
2022-12-07T23:35:20.523Z,31.03
2022-12-07T23:37:47.011Z,35.77
2022-12-07T23:40:13.476Z,29.50
2022-12-07T23:42:39.912Z,29.43
2022-12-07T23:45:06.901Z,26.30
2022-12-07T23:47:33.429Z,29.57
2022-12-07T23:49:59.875Z,34.83
2022-12-07T23:52:26.288Z,28.67
2022-12-07T23:54:52.724Z,29.53
2022-12-07T23:57:19.164Z,29.87
2022-12-07T23:59:45.616Z,30.83
